Time;durP1;ratioP1;P1;durP2;ratioP2;P2;SDS_P1;SDS_P2;PMS_P1;PMS_P2;Temp;Humidity;BMP_temperature;BMP_pressure;BME280_temperature;BME280_humidity;BME280_pressure;Samples;Min_cycle;Max_cycle;Signal;HPM_P1;HPM_P2
2022/07/09 00:02:00;;;;;;;0.50;0.50;;;19.50;99.90;20.00;102732.00;;;;5098649;28;20213;-66
2022/07/09 00:04:44;;;;;;;0.50;0.50;;;19.30;99.90;20.20;102692.00;;;;5083066;28;20188;-66
2022/07/09 00:07:28;;;;;;;0.50;0.50;;;19.30;99.90;20.30;102712.00;;;;5098562;28;20181;-66
2022/07/09 00:10:41;;;;;;;0.50;0.50;;;19.40;99.90;20.50;102712.00;;;;5098300;28;20551;-66
2022/07/09 00:17:15;;;;;;;0.70;0.70;;;19.50;99.90;19.20;102717.00;;;;5104305;28;20197;-68
2022/07/09 00:20:05;;;;;;;0.57;0.57;;;19.00;99.90;19.00;102726.00;;;;5097910;28;20173;-67
2022/07/09 00:22:51;;;;;;;0.50;0.50;;;18.80;99.90;19.80;102733.00;;;;5083295;28;20191;-68
2022/07/09 00:25:35;;;;;;;0.40;0.40;;;19.10;99.90;19.80;102717.00;;;;5115781;28;20708;-67
2022/07/09 00:28:42;;;;;;;5.27;4.97;;;19.00;99.90;19.90;102730.00;;;;5097812;28;20201;-66
2022/07/09 00:31:16;;;;;;;0.50;0.50;;;19.10;99.90;19.90;102731.00;;;;5084931;28;20200;-66
2022/07/09 00:33:59;;;;;;;0.50;0.50;;;19.30;99.90;19.90;102719.00;;;;5097445;28;20229;-66
2022/07/09 00:37:04;;;;;;;0.50;0.50;;;19.20;99.90;20.00;102721.00;;;;5097622;28;20211;-66
2022/07/09 00:39:47;;;;;;;0.50;0.50;;;19.20;99.90;20.00;102726.00;;;;5101562;28;20648;-66
2022/07/09 00:42:34;;;;;;;0.50;0.50;;;19.20;99.90;19.60;102731.00;;;;5114545;28;20188;-66
2022/07/09 00:45:41;;;;;;;0.60;0.60;;;19.20;99.90;19.90;102725.00;;;;5082083;28;20177;-66
2022/07/09 00:48:25;;;;;;;0.60;0.60;;;19.10;99.90;19.80;102727.00;;;;5084627;28;20283;-66
2022/07/09 00:51:12;;;;;;;0.60;0.60;;;19.10;99.90;19.90;102719.00;;;;5114175;28;20188;-66
2022/07/09 00:54:03;;;;;;;0.50;0.50;;;19.10;99.90;20.00;102714.00;;;;5097069;28;20662;-66
2022/07/09 00:56:47;;;;;;;0.50;0.50;;;19.20;99.90;20.00;102718.00;;;;5096462;28;20196;-66
2022/07/09 00:59:35;;;;;;;0.50;0.50;;;19.10;99.90;20.30;102722.00;;;;5114323;28;20184;-66
2022/07/09 01:02:10;;;;;;;0.60;0.60;;;19.30;99.90;19.90;102718.00;;;;5081645;28;20241;-66
2022/07/09 01:04:54;;;;;;;1.20;1.20;;;19.30;99.90;20.40;102716.00;;;;5097089;28;20180;-66
2022/07/09 01:07:37;;;;;;;0.50;0.50;;;19.40;99.90;20.30;102706.00;;;;5096729;28;20179;-66
2022/07/09 01:10:44;;;;;;;0.50;0.50;;;19.40;99.90;19.70;102707.00;;;;5097312;28;20191;-66
2022/07/09 01:13:28;;;;;;;0.50;0.50;;;19.30;99.90;19.50;102703.00;;;;5081145;28;20214;-66
2022/07/09 01:16:20;;;;;;;0.60;0.60;;;19.00;99.90;19.70;102705.00;;;;5097262;28;20188;-66
2022/07/09 01:19:04;;;;;;;0.50;0.50;;;19.00;99.90;19.70;102691.00;;;;5096750;28;20261;-66
2022/07/09 01:21:49;;;;;;;0.50;0.50;;;19.00;99.90;20.00;102703.00;;;;5096648;28;20191;-66
2022/07/09 01:24:33;;;;;;;0.60;0.60;;;19.10;99.90;19.60;102696.00;;;;5079813;28;20188;-66
2022/07/09 01:27:26;;;;;;;0.50;0.50;;;19.00;99.90;19.80;102697.00;;;;5096706;28;20636;-66
2022/07/09 01:30:10;;;;;;;0.90;0.90;;;19.00;99.90;19.90;102691.00;;;;5113436;28;20187;-66
2022/07/09 01:32:58;;;;;;;0.57;0.57;;;19.00;99.90;19.80;102685.00;;;;5096115;28;20602;-66
2022/07/09 01:35:59;;;;;;;0.60;0.60;;;18.90;99.90;19.40;102696.00;;;;5080867;28;20236;-66
2022/07/09 01:38:45;;;;;;;0.60;0.60;;;18.80;99.90;19.40;102689.00;;;;5096234;28;20184;-66
2022/07/09 01:41:32;;;;;;;0.60;0.60;;;18.70;99.90;19.50;102686.00;;;;5080791;28;20207;-66
2022/07/09 01:44:33;;;;;;;0.60;0.60;;;18.70;99.90;19.60;102692.00;;;;5096101;28;20186;-66
2022/07/09 01:47:06;;;;;;;0.60;0.60;;;18.70;99.90;19.70;102693.00;;;;5096136;28;20214;-66
2022/07/09 01:49:50;;;;;;;0.60;0.60;;;18.80;99.90;19.70;102693.00;;;;5096269;28;20538;-66
2022/07/09 01:52:34;;;;;;;0.63;0.63;;;18.80;99.90;19.70;102687.00;;;;5095990;28;20201;-66
2022/07/09 01:55:26;;;;;;;0.53;0.53;;;18.80;99.90;20.00;102684.00;;;;5113237;28;20168;-66
2022/07/09 01:58:15;;;;;;;0.70;0.70;;;19.00;99.90;20.00;102680.00;;;;5096327;28;20190;-66
2022/07/09 02:01:02;;;;;;;0.60;0.60;;;19.20;99.90;19.60;102670.00;;;;5081092;28;20245;-66
2022/07/09 02:03:48;;;;;;;0.60;0.60;;;19.00;99.90;19.60;102670.00;;;;5113218;28;20547;-66
2022/07/09 02:06:37;;;;;;;0.50;0.50;;;18.80;99.90;20.00;102660.00;;;;5095794;28;20213;-65
2022/07/09 02:09:32;;;;;;;0.50;0.50;;;19.10;99.90;19.80;102665.00;;;;5081011;28;20181;-65
2022/07/09 02:12:19;;;;;;;0.70;0.70;;;19.10;99.90;20.00;102668.00;;;;5095835;28;20207;-65
2022/07/09 02:15:10;;;;;;;0.60;0.60;;;19.20;99.90;19.90;102661.00;;;;5095850;28;20186;-66
2022/07/09 02:18:05;;;;;;;0.77;0.77;;;19.10;99.90;20.00;102667.00;;;;5095663;28;20180;-65
2022/07/09 02:20:57;;;;;;;2.00;1.97;;;19.10;99.90;19.90;102665.00;;;;5112841;28;20181;-66
2022/07/09 02:23:50;;;;;;;0.60;0.60;;;19.10;99.90;19.90;102672.00;;;;5112761;28;20212;-66
2022/07/09 02:26:36;;;;;;;0.70;0.70;;;19.10;99.90;20.20;102659.00;;;;5113012;28;20223;-67
2022/07/09 02:29:22;;;;;;;0.80;0.80;;;19.40;99.90;20.10;102660.00;;;;5095479;28;20247;-67
2022/07/09 02:32:07;;;;;;;0.50;0.50;;;19.40;99.90;19.80;102654.00;;;;5095585;28;20214;-68
2022/07/09 02:34:50;;;;;;;0.60;0.60;;;19.30;99.90;19.90;102654.00;;;;5095401;28;20301;-67
2022/07/09 02:37:34;;;;;;;0.60;0.60;;;19.20;99.90;19.90;102654.00;;;;5112735;28;20182;-68
2022/07/09 02:40:25;;;;;;;0.50;0.50;;;19.20;99.90;20.10;102643.00;;;;5095464;28;20189;-65
2022/07/09 02:43:08;;;;;;;1.43;1.23;;;19.20;99.90;20.20;102651.00;;;;5112472;28;20716;-68
2022/07/09 02:46:12;;;;;;;0.80;0.80;;;19.30;99.90;20.50;102643.00;;;;5095408;28;20203;-66
2022/07/09 02:48:59;;;;;;;5.27;4.97;;;19.50;99.90;19.90;102645.00;;;;5095597;28;20210;-67
2022/07/09 02:59:30;;;;;;;0.40;0.40;;;18.90;99.90;19.80;102646.00;;;;5103231;28;20252;-67
2022/07/09 03:02:16;;;;;;;0.40;0.40;;;19.00;99.90;20.00;102648.00;;;;5095220;28;20203;-67
2022/07/09 03:05:00;;;;;;;0.50;0.50;;;19.20;99.90;19.80;102640.00;;;;5095298;28;20639;-67
2022/07/09 03:07:52;;;;;;;0.50;0.50;;;19.10;99.90;20.30;102635.00;;;;5095566;28;20189;-65
2022/07/09 03:10:35;;;;;;;0.40;0.40;;;19.30;99.90;20.20;102630.00;;;;5095268;28;20207;-68
2022/07/09 03:17:15;;;;;;;0.50;0.50;;;19.30;99.90;20.20;102619.00;;;;5082050;28;20736;-65
2022/07/09 03:20:02;;;;;;;0.73;0.73;;;19.20;99.90;20.40;102609.00;;;;5098408;28;20247;-65
2022/07/09 03:22:46;;;;;;;1.07;1.07;;;19.40;99.90;20.30;102618.00;;;;5099143;28;20279;-68
2022/07/09 03:25:30;;;;;;;0.50;0.50;;;19.60;99.90;19.80;102588.00;;;;5116035;28;20257;-65
2022/07/09 03:28:19;;;;;;;0.50;0.50;;;19.50;99.90;20.00;102614.00;;;;5098871;28;20185;-65
2022/07/09 03:31:15;;;;;;;0.90;0.90;;;19.30;99.90;20.20;102619.00;;;;5116056;28;20264;-65
2022/07/09 03:33:59;;;;;;;0.50;0.50;;;19.40;99.90;20.00;102615.00;;;;5084506;28;20184;-65
2022/07/09 03:36:45;;;;;;;0.50;0.50;;;19.30;99.90;19.70;102616.00;;;;5098684;28;20612;-65
2022/07/09 03:39:23;;;;;;;0.50;0.50;;;19.10;99.90;20.00;102601.00;;;;5098875;28;20178;-65
2022/07/09 03:42:29;;;;;;;0.50;0.50;;;19.10;99.90;20.30;102595.00;;;;5098360;28;20181;-65
2022/07/09 03:56:54;;;;;;;1.50;1.50;;;18.80;99.90;19.20;102603.00;;;;5068290;28;20251;-66
2022/07/09 03:59:38;;;;;;;0.40;0.40;;;19.00;99.90;18.80;102614.00;;;;5056474;28;20292;-66
2022/07/09 04:02:26;;;;;;;5.80;2.93;;;18.60;99.90;18.80;102612.00;;;;5056800;28;20187;-65
2022/07/09 04:05:35;;;;;;;0.40;0.40;;;18.40;99.90;18.80;102610.00;;;;5040287;28;20203;-66
2022/07/09 04:08:43;;;;;;;0.40;0.40;;;18.50;99.90;18.90;102585.00;;;;5042020;28;20181;-66
2022/07/09 04:11:33;;;;;;;0.43;0.43;;;18.40;99.90;19.10;102620.00;;;;5056444;28;20244;-66
2022/07/09 04:14:26;;;;;;;0.40;0.40;;;18.40;99.90;19.00;102610.00;;;;5040025;28;20184;-66
2022/07/09 04:17:09;;;;;;;0.60;0.60;;;18.40;99.90;18.70;102617.00;;;;5056818;28;20278;-66
2022/07/09 04:19:52;;;;;;;0.40;0.40;;;18.30;99.90;19.00;102580.00;;;;5056722;28;20194;-66
2022/07/09 04:22:36;;;;;;;0.40;0.40;;;18.40;99.90;19.40;102609.00;;;;5039890;28;20197;-66
2022/07/09 04:25:30;;;;;;;2.00;1.90;;;18.60;99.90;19.00;102596.00;;;;5039777;28;20175;-66
2022/07/09 04:28:20;;;;;;;0.67;0.67;;;18.70;99.90;18.90;102587.00;;;;5059611;28;20186;-67
2022/07/09 04:31:22;;;;;;;3.17;2.03;;;18.50;99.90;18.60;102613.00;;;;5097400;28;20286;-65
2022/07/09 04:34:08;;;;;;;1.03;1.03;;;18.50;99.90;18.40;102622.00;;;;5114880;28;20184;-65
2022/07/09 04:37:14;;;;;;;0.30;0.30;;;18.20;99.90;18.70;102620.00;;;;5097388;28;20189;-66
2022/07/09 04:40:00;;;;;;;0.30;0.30;;;18.40;99.90;19.50;102621.00;;;;5086582;28;20188;-66
2022/07/09 04:42:49;;;;;;;0.30;0.30;;;18.80;99.90;21.10;102606.00;;;;5098967;28;20196;-66
2022/07/09 04:45:51;;;;;;;0.40;0.40;;;19.70;99.90;20.30;102600.00;;;;5082606;28;20191;-66
2022/07/09 04:48:37;;;;;;;0.20;0.20;;;19.70;99.90;20.40;102597.00;;;;5114307;28;20539;-66
2022/07/09 04:51:32;;;;;;;1.88;1.52;;;19.90;99.90;20.30;102556.00;;;;5097322;28;20179;-66
2022/07/09 04:54:36;;;;;;;0.32;0.32;;;19.80;99.90;19.80;102561.00;;;;5097225;28;20188;-66
2022/07/09 04:57:20;;;;;;;0.95;0.95;;;19.60;99.90;19.80;102593.00;;;;5084315;28;20175;-66
2022/07/09 05:00:07;;;;;;;1.55;1.55;;;19.40;99.90;19.60;102586.00;;;;5097246;28;20186;-66
2022/07/09 05:02:51;;;;;;;1.35;0.77;;;19.30;99.90;19.80;102575.00;;;;5114287;28;20179;-66
2022/07/09 05:05:55;;;;;;;0.70;0.70;;;19.40;99.90;19.80;102577.00;;;;5097178;28;20249;-66
2022/07/09 05:08:42;;;;;;;0.75;0.75;;;19.50;99.90;20.60;102553.00;;;;5084100;28;20222;-67
2022/07/09 05:11:33;;;;;;;0.40;0.40;;;19.70;99.90;19.90;102572.00;;;;5097981;28;20191;-66
2022/07/09 05:14:37;;;;;;;1.15;1.13;;;19.80;99.90;19.60;102580.00;;;;5081902;28;20184;-66
2022/07/09 05:17:25;;;;;;;0.38;0.38;;;19.40;99.90;20.30;102546.00;;;;5114082;28;20187;-66
2022/07/09 05:20:10;;;;;;;0.30;0.30;;;19.70;99.90;20.10;102569.00;;;;5096827;28;20175;-66
2022/07/09 05:23:15;;;;;;;0.30;0.30;;;19.60;99.90;20.00;102579.00;;;;5096801;28;20180;-65
2022/07/09 05:26:01;;;;;;;1.88;1.13;;;19.50;99.90;21.00;102566.00;;;;5083337;28;20257;-65
2022/07/09 05:29:05;;;;;;;0.60;0.60;;;19.90;99.90;20.90;102556.00;;;;5113539;28;20184;-65
2022/07/09 05:31:49;;;;;;;1.05;1.05;;;20.30;99.90;21.60;102553.00;;;;5083920;28;20205;-65
2022/07/09 05:34:35;;;;;;;1.00;1.00;;;20.50;99.90;20.20;102519.00;;;;5096680;28;20171;-66
2022/07/09 05:37:21;;;;;;;0.25;0.25;;;20.30;99.90;20.10;102562.00;;;;5096517;28;20195;-66
2022/07/09 05:40:06;;;;;;;0.30;0.30;;;19.90;99.90;20.20;102573.00;;;;5096254;28;20254;-66
2022/07/09 05:42:52;;;;;;;3.28;3.05;;;19.70;99.90;20.60;102551.00;;;;5095874;28;20555;-65
2022/07/09 05:45:59;;;;;;;1.55;1.50;;;19.80;99.90;20.20;102565.00;;;;5096432;28;20623;-66
2022/07/09 05:48:42;;;;;;;0.20;0.20;;;20.10;99.90;19.80;102559.00;;;;5100480;28;20194;-66
2022/07/09 05:55:25;;;;;;;2.45;2.25;;;20.20;99.90;21.10;102564.00;;;;5105731;28;20199;-66
2022/07/09 05:58:12;;;;;;;2.22;2.10;;;20.50;99.90;21.20;102550.00;;;;5113004;28;20691;-66
2022/07/09 06:00:56;;;;;;;1.35;1.25;;;20.60;99.90;21.80;102532.00;;;;5096270;28;20190;-66
2022/07/09 06:03:40;;;;;;;0.80;0.80;;;21.30;99.90;22.20;102568.00;;;;5096026;28;20539;-66
2022/07/09 06:06:47;;;;;;;5.15;4.00;;;21.80;99.90;20.50;102555.00;;;;5096082;28;20184;-66
2022/07/09 06:09:45;;;;;;;4.13;3.75;;;20.80;99.90;20.60;102558.00;;;;5082885;28;20180;-66
2022/07/09 06:12:28;;;;;;;7.20;6.22;;;20.50;99.90;21.90;102571.00;;;;5081203;28;20299;-66
2022/07/09 06:15:35;;;;;;;4.45;4.00;;;21.40;99.90;21.60;102567.00;;;;5096057;28;20209;-66
2022/07/09 06:18:38;;;;;;;0.20;0.20;;;21.20;99.90;21.80;102571.00;;;;5068917;28;20180;-66
2022/07/09 06:21:27;;;;;;;1.35;0.82;;;21.20;99.90;20.50;102536.00;;;;5082362;28;20263;-66
2022/07/09 06:24:17;;;;;;;3.10;1.23;;;20.70;99.90;20.40;102544.00;;;;5081111;28;20175;-66
2022/07/09 06:27:06;;;;;;;2.60;2.45;;;20.30;99.90;20.50;102569.00;;;;5081052;28;20237;-66
2022/07/09 06:29:49;;;;;;;0.88;0.88;;;20.30;99.90;21.80;102543.00;;;;5080738;28;20543;-66
2022/07/09 06:32:35;;;;;;;0.30;0.30;;;20.80;99.90;22.10;102577.00;;;;5095178;28;20211;-66
2022/07/09 06:35:39;;;;;;;0.20;0.20;;;21.40;99.90;23.20;102570.00;;;;5095713;28;20228;-67
2022/07/09 06:38:27;;;;;;;0.40;0.40;;;22.10;99.90;23.90;102599.00;;;;5082653;28;20194;-66
2022/07/09 06:41:16;;;;;;;0.20;0.20;;;22.70;99.90;24.20;102642.00;;;;5095804;28;20245;-66
2022/07/09 06:44:19;;;;;;;1.00;0.77;;;23.00;99.90;24.20;102623.00;;;;5095627;28;20267;-66
2022/07/09 06:47:08;;;;;;;0.45;0.45;;;23.10;99.90;24.60;102665.00;;;;5082689;28;20619;-66
2022/07/09 06:49:54;;;;;;;0.20;0.20;;;23.40;99.90;24.40;102661.00;;;;5079253;28;20179;-66
2022/07/09 06:52:56;;;;;;;0.35;0.35;;;23.40;99.90;24.60;102646.00;;;;5095116;28;20198;-66
2022/07/09 06:55:43;;;;;;;0.32;0.32;;;23.40;99.90;24.20;102663.00;;;;5099820;28;20183;-66
2022/07/09 06:58:32;;;;;;;0.40;0.40;;;23.30;99.90;24.50;102664.00;;;;5099803;28;20215;-66
2022/07/09 07:01:18;;;;;;;0.20;0.20;;;23.40;99.90;24.60;102661.00;;;;5084564;28;20639;-67
2022/07/09 07:04:04;;;;;;;0.20;0.20;;;23.50;99.90;24.50;102675.00;;;;5099336;28;20216;-66
2022/07/09 07:06:51;;;;;;;1.33;1.33;;;23.50;99.90;25.00;102695.00;;;;5098864;28;20188;-66
2022/07/09 07:09:49;;;;;;;7.00;6.35;;;23.60;99.90;24.80;102664.00;;;;5117474;28;20211;-66
2022/07/09 07:12:41;;;;;;;0.98;0.98;;;23.60;99.90;26.10;102708.00;;;;5086166;28;20264;-66
2022/07/09 07:15:24;;;;;;;0.68;0.68;;;24.50;99.90;27.00;102691.00;;;;5099433;28;20211;-66
2022/07/09 07:18:08;;;;;;;0.17;0.17;;;25.40;99.90;26.90;102735.00;;;;5099316;28;20206;-66
2022/07/09 07:21:00;;;;;;;0.20;0.20;;;26.00;99.90;26.30;102690.00;;;;5115776;28;20700;-66
2022/07/09 07:23:49;;;;;;;0.47;0.47;;;25.50;99.90;26.10;102708.00;;;;5116415;28;20267;-66
2022/07/09 07:26:34;;;;;;;0.30;0.30;;;25.10;99.90;27.80;102730.00;;;;5101023;28;20176;-66
2022/07/09 07:29:20;;;;;;;0.20;0.20;;;26.00;99.90;29.00;102754.00;;;;5099158;28;20172;-66
2022/07/09 07:32:04;;;;;;;0.13;0.13;;;27.20;99.90;30.50;102756.00;;;;5098675;28;20314;-66
2022/07/09 07:34:48;;;;;;;0.20;0.20;;;28.50;99.90;30.80;102755.00;;;;5115582;28;20233;-66
2022/07/09 07:37:34;;;;;;;0.52;0.52;;;29.00;99.90;31.00;102763.00;;;;5115483;28;20191;-67
2022/07/09 07:40:37;;;;;;;2.13;1.85;;;29.60;99.90;31.50;102777.00;;;;5100838;28;20173;-67
2022/07/09 07:43:24;;;;;;;0.10;0.10;;;30.30;99.90;31.80;102769.00;;;;5100116;28;20203;-67
2022/07/09 07:46:10;;;;;;;0.80;0.80;;;30.60;99.90;30.80;102778.00;;;;5116132;28;20184;-66
2022/07/09 07:49:17;;;;;;;1.08;0.98;;;30.20;99.90;30.30;102773.00;;;;5115537;28;20172;-66
2022/07/09 07:52:08;;;;;;;0.25;0.25;;;29.80;99.90;30.10;102761.00;;;;5100069;28;20214;-66
2022/07/09 07:54:52;;;;;;;4.57;2.08;;;29.30;99.90;31.70;102743.00;;;;5098521;28;20804;-67
2022/07/09 07:57:36;;;;;;;0.40;0.40;;;30.20;99.90;31.70;102775.00;;;;5098168;28;20176;-67
2022/07/09 08:00:33;;;;;;;1.05;1.05;;;30.50;99.90;32.20;102770.00;;;;5098212;28;20184;-67
2022/07/09 08:03:40;;;;;;;0.13;0.13;;;30.80;99.90;32.80;102777.00;;;;5097995;28;20238;-67
2022/07/09 08:06:32;;;;;;;0.10;0.10;;;31.50;99.90;32.10;102787.00;;;;5070768;28;20194;-67
2022/07/09 08:09:18;;;;;;;0.22;0.22;;;31.30;99.90;31.10;102779.00;;;;5098538;28;20242;-67
2022/07/09 08:12:09;;;;;;;0.73;0.73;;;30.40;99.90;30.20;102789.00;;;;5115376;28;20599;-67
2022/07/09 08:14:53;;;;;;;0.77;0.77;;;29.70;99.90;30.90;102792.00;;;;5114894;28;20188;-67
2022/07/09 08:17:55;;;;;;;1.45;1.35;;;29.70;99.90;28.60;102737.00;;;;5097866;28;20211;-66
2022/07/09 08:20:49;;;;;;;2.60;2.45;;;29.00;99.90;29.80;102774.00;;;;5097951;28;20175;-67
2022/07/09 08:23:51;;;;;;;0.93;0.93;;;28.90;99.90;29.00;102736.00;;;;5084210;28;20203;-67
2022/07/09 08:26:37;;;;;;;1.75;1.58;;;28.50;99.90;28.90;102772.00;;;;5114964;28;20175;-67
2022/07/09 08:29:38;;;;;;;0.88;0.65;;;28.00;99.90;27.50;102752.00;;;;5098073;28;20267;-67
2022/07/09 08:32:25;;;;;;;3.65;2.17;;;27.30;99.90;27.30;102737.00;;;;5097297;28;20187;-67
2022/07/09 08:35:11;;;;;;;0.10;0.10;;;26.60;99.90;26.70;102714.00;;;;5097802;28;20631;-66
2022/07/09 08:38:02;;;;;;;0.43;0.43;;;25.90;99.90;27.00;102726.00;;;;5114536;28;20183;-66
2022/07/09 08:40:47;;;;;;;0.30;0.30;;;25.70;99.90;26.50;102711.00;;;;5097592;28;20229;-66
2022/07/09 08:43:34;;;;;;;21.20;1.13;;;25.50;99.90;26.70;102717.00;;;;5114373;28;20291;-67
2022/07/09 08:46:41;;;;;;;1.55;1.55;;;25.60;99.90;26.70;102716.00;;;;5097780;28;20179;-67
2022/07/09 08:49:36;;;;;;;0.68;0.68;;;25.50;99.90;26.00;102704.00;;;;5097388;28;20211;-67
2022/07/09 08:56:55;;;;;;;0.95;0.77;;;25.10;99.90;25.60;102701.00;;;;5033240;28;20183;-67
2022/07/09 08:59:40;;;;;;;1.20;1.20;;;24.70;99.90;25.10;102666.00;;;;5069458;28;20191;-66
2022/07/09 09:02:20;;;;;;;0.47;0.47;;;24.50;99.90;25.30;102692.00;;;;5096829;28;20546;-67
2022/07/09 09:05:14;;;;;;;0.68;0.52;;;24.50;99.90;24.30;102672.00;;;;5097670;28;20597;-67
2022/07/09 09:08:00;;;;;;;0.35;0.35;;;24.00;99.90;23.80;102671.00;;;;5096649;28;20176;-67
2022/07/09 09:10:35;;;;;;;0.63;0.63;;;23.70;99.90;24.00;102668.00;;;;5081810;28;20318;-67
2022/07/09 09:17:31;;;;;;;1.15;1.05;;;23.80;99.90;24.90;102669.00;;;;5022861;28;20236;-67
2022/07/09 09:20:21;;;;;;;0.85;0.85;;;24.20;99.90;24.20;102658.00;;;;4999478;28;20191;-67
2022/07/09 09:23:10;;;;;;;0.73;0.73;;;23.90;99.90;24.90;102672.00;;;;5001293;28;20238;-67
2022/07/09 09:26:17;;;;;;;0.38;0.38;;;24.00;99.90;24.20;102663.00;;;;4999762;28;20198;-67
2022/07/09 09:28:55;;;;;;;0.50;0.50;;;23.90;99.90;24.80;102679.00;;;;4999083;28;20186;-67
2022/07/09 09:31:32;;;;;;;0.38;0.38;;;24.20;99.90;25.00;102684.00;;;;5015165;28;20194;-67
2022/07/09 09:34:10;;;;;;;0.30;0.30;;;24.30;99.90;25.30;102705.00;;;;4999052;28;20183;-66
2022/07/09 09:36:40;;;;;;;0.20;0.20;;;24.40;99.90;25.50;102701.00;;;;5015433;28;20206;-67
2022/07/09 09:39:19;;;;;;;0.10;0.10;;;24.70;99.90;25.30;102712.00;;;;4999018;28;20249;-67
2022/07/09 09:42:08;;;;;;;0.15;0.15;;;24.60;99.90;26.00;102732.00;;;;5015430;28;20252;-67
2022/07/09 09:45:15;;;;;;;0.10;0.10;;;25.00;99.90;25.40;102719.00;;;;4999009;28;20183;-67
2022/07/09 09:48:10;;;;;;;0.10;0.10;;;25.10;99.90;25.80;102738.00;;;;4986928;28;20277;-67
2022/07/09 09:51:05;;;;;;;0.40;0.40;;;25.20;99.90;25.90;102744.00;;;;4994216;28;20226;-67
2022/07/09 09:53:54;;;;;;;1.45;0.40;;;25.20;99.90;25.30;102737.00;;;;4998607;28;20641;-66
2022/07/09 09:56:58;;;;;;;0.10;0.10;;;24.90;99.90;25.30;102749.00;;;;5015239;28;20224;-67
2022/07/09 09:59:50;;;;;;;0.20;0.20;;;24.90;99.90;24.90;102738.00;;;;4998171;28;20278;-67
2022/07/09 10:02:37;;;;;;;0.40;0.40;;;24.70;99.90;25.70;102751.00;;;;4997697;28;20254;-67
2022/07/09 10:05:32;;;;;;;0.10;0.10;;;24.90;99.90;25.20;102739.00;;;;4998446;28;20214;-67
2022/07/09 10:08:36;;;;;;;0.20;0.20;;;24.80;99.90;24.40;102728.00;;;;5001128;28;20183;-66
2022/07/09 10:11:41;;;;;;;0.50;0.50;;;24.50;99.90;24.20;102701.00;;;;4983784;28;20740;-67
2022/07/09 10:14:30;;;;;;;0.10;0.10;;;24.10;99.90;24.70;102710.00;;;;5063196;28;20192;-67
2022/07/09 10:17:16;;;;;;;0.55;0.55;;;23.90;99.90;25.40;102706.00;;;;5097831;28;20191;-67
2022/07/09 10:19:58;;;;;;;0.35;0.35;;;24.50;99.90;25.50;102728.00;;;;5080280;28;20180;-67
2022/07/09 10:33:32;;;;;;;0.10;0.10;;;24.00;99.90;25.60;102726.00;;;;5131535;27;20558;-66
2022/07/09 10:36:17;;;;;;;0.10;0.10;;;24.50;99.90;26.80;102753.00;;;;5093112;28;20184;-67
2022/07/09 10:39:11;;;;;;;0.85;0.85;;;25.70;99.90;27.30;102771.00;;;;5110147;28;20188;-67
2022/07/09 10:42:03;;;;;;;0.10;0.10;;;26.40;99.90;25.60;102759.00;;;;5092955;28;20267;-67
2022/07/09 10:45:26;;;;;;;0.10;0.10;;;25.80;99.90;26.00;102764.00;;;;5095177;28;20211;-67
2022/07/09 10:48:16;;;;;;;0.10;0.10;;;25.60;99.90;26.90;102758.00;;;;5078706;28;20183;-67
2022/07/09 10:51:22;;;;;;;0.10;0.10;;;25.70;99.90;25.20;102745.00;;;;5092576;28;20263;-67
2022/07/09 10:54:18;;;;;;;0.75;0.10;;;25.00;99.90;24.80;102728.00;;;;5092730;28;20207;-67
2022/07/09 10:57:05;;;;;;;0.17;0.17;;;24.60;99.90;24.60;102723.00;;;;5109466;28;20223;-67
2022/07/09 10:59:49;;;;;;;0.35;0.35;;;24.30;99.90;24.60;102744.00;;;;5077773;28;20179;-67
2022/07/09 11:02:38;;;;;;;0.10;0.10;;;24.00;99.90;24.80;102742.00;;;;5109611;28;20196;-67
2022/07/09 11:05:27;;;;;;;0.30;0.30;;;24.00;99.90;25.10;102733.00;;;;5092616;28;20256;-67
2022/07/09 11:08:46;;;;;;;0.10;0.10;;;24.20;99.90;25.60;102770.00;;;;5078069;28;20176;-67
2022/07/09 11:11:33;;;;;;;0.10;0.10;;;24.50;99.90;25.70;102777.00;;;;5059358;28;20671;-67
2022/07/09 11:14:46;;;;;;;0.30;0.30;;;24.70;99.90;24.90;102765.00;;;;5109484;28;20176;-67
2022/07/09 11:18:03;;;;;;;0.30;0.30;;;24.40;99.90;24.00;102744.00;;;;5109228;28;20640;-67
2022/07/09 11:20:52;;;;;;;0.17;0.17;;;23.90;99.90;24.60;102757.00;;;;5086648;28;20247;-66
2022/07/09 11:23:54;;;;;;;0.20;0.20;;;23.80;99.90;24.50;102732.00;;;;5092147;28;20197;-66
2022/07/09 11:26:46;;;;;;;2.30;0.65;;;24.00;99.90;25.50;102756.00;;;;5092060;28;20179;-66
2022/07/09 11:29:33;;;;;;;0.13;0.13;;;24.40;99.90;25.90;102777.00;;;;5109248;28;20168;-66
2022/07/09 11:32:17;;;;;;;0.40;0.40;;;25.40;99.90;25.20;102772.00;;;;5092001;28;20212;-66
2022/07/09 11:35:07;;;;;;;0.20;0.20;;;25.40;99.90;26.40;102781.00;;;;5092193;28;20670;-66
2022/07/09 11:38:08;;;;;;;0.30;0.30;;;25.40;99.90;25.20;102774.00;;;;5091891;28;20180;-66
2022/07/09 11:41:01;;;;;;;0.32;0.32;;;24.70;99.90;24.10;102759.00;;;;5091496;28;20708;-67
2022/07/09 11:43:49;;;;;;;0.52;0.52;;;24.00;99.90;24.60;102780.00;;;;5101269;28;20546;-66
2022/07/09 11:47:21;;;;;;;0.20;0.20;;;23.80;99.90;24.50;102775.00;;;;5077709;28;20592;-66
2022/07/09 11:50:42;;;;;;;0.10;0.10;;;23.80;99.90;25.10;102781.00;;;;5079542;28;20188;-67
2022/07/09 11:53:28;;;;;;;0.10;0.10;;;24.30;99.90;25.70;102798.00;;;;5066713;28;20193;-67
2022/07/09 11:56:41;;;;;;;0.38;0.38;;;24.70;99.90;26.80;102804.00;;;;5077942;28;20627;-67
2022/07/09 11:59:31;;;;;;;0.30;0.30;;;25.50;99.90;26.00;102817.00;;;;5094974;28;20203;-67
2022/07/09 12:02:30;;;;;;;0.10;0.10;;;25.70;99.90;26.30;102819.00;;;;5077956;28;20208;-67
2022/07/09 12:12:32;;;;;;;0.20;0.20;;;24.90;99.90;25.30;102810.00;;;;5096274;28;20192;-67
2022/07/09 12:15:36;;;;;;;0.60;0.60;;;24.70;99.90;25.20;102813.00;;;;5074578;28;20169;-67
2022/07/09 12:18:19;;;;;;;6.13;0.30;;;24.50;99.90;24.40;102800.00;;;;5059171;28;20642;-67
2022/07/09 12:21:05;;;;;;;3.30;0.52;;;24.00;99.90;24.20;102794.00;;;;5057597;28;20188;-67
2022/07/09 12:23:51;;;;;;;0.15;0.15;;;23.80;99.90;24.40;102785.00;;;;5075323;28;20178;-67
2022/07/09 12:26:37;;;;;;;2.92;0.50;;;23.80;99.90;24.30;102792.00;;;;5074127;28;20193;-67
2022/07/09 12:29:30;;;;;;;0.43;0.40;;;23.60;99.90;24.30;102799.00;;;;5074088;28;20193;-68
2022/07/09 12:32:26;;;;;;;0.25;0.25;;;23.60;99.90;25.00;102806.00;;;;5073502;28;20672;-67
2022/07/09 12:35:17;;;;;;;0.20;0.20;;;24.10;99.90;25.50;102814.00;;;;5074170;28;20165;-68
2022/07/09 12:38:19;;;;;;;0.40;0.40;;;24.40;99.90;24.90;102817.00;;;;5073788;28;20204;-67
2022/07/09 12:41:04;;;;;;;0.20;0.20;;;24.50;99.90;24.30;102814.00;;;;5074023;28;20188;-67
2022/07/09 12:44:08;;;;;;;0.30;0.30;;;24.00;99.90;25.30;102816.00;;;;5073738;28;20529;-67
2022/07/09 12:47:09;;;;;;;0.30;0.30;;;24.10;99.90;25.20;102818.00;;;;5057770;28;20280;-68
2022/07/09 12:50:04;;;;;;;0.93;0.93;;;24.20;99.90;25.30;102813.00;;;;5073558;28;20180;-68
2022/07/09 12:52:53;;;;;;;0.10;0.10;;;24.30;99.90;25.80;102826.00;;;;5059544;28;20216;-68
2022/07/09 12:55:30;;;;;;;0.17;0.17;;;24.70;99.90;24.40;102814.00;;;;5072523;28;20192;-67
2022/07/09 13:02:34;;;;;;;0.20;0.20;;;24.20;99.90;25.80;102821.00;;;;5062361;28;20203;-68
2022/07/09 13:05:52;;;;;;;0.65;0.32;;;24.50;99.90;25.40;102824.00;;;;5056559;28;20201;-68
2022/07/09 13:08:31;;;;;;;0.20;0.20;;;24.70;99.90;25.10;102805.00;;;;4955075;29;20211;-68
2022/07/09 13:11:06;;;;;;;0.10;0.10;;;24.40;99.90;25.70;102815.00;;;;4938660;29;20264;-67
2022/07/09 13:13:49;;;;;;;0.25;0.25;;;24.50;99.90;26.00;102791.00;;;;4938941;29;20647;-68
2022/07/09 13:20:42;;;;;;;0.30;0.30;;;25.10;99.90;26.00;102817.00;;;;4934273;29;20695;-68
2022/07/09 13:23:36;;;;;;;0.30;0.30;;;25.10;99.90;25.90;102825.00;;;;4937964;29;20197;-68
2022/07/09 13:26:22;;;;;;;0.10;0.10;;;25.00;99.90;26.30;102824.00;;;;4937618;29;20572;-68
2022/07/09 13:29:11;;;;;;;0.13;0.13;;;25.10;99.90;25.80;102840.00;;;;4937711;29;20297;-68
2022/07/09 13:32:15;;;;;;;0.15;0.15;;;24.90;99.90;25.50;102802.00;;;;4937820;29;20224;-68
2022/07/09 13:35:04;;;;;;;0.10;0.10;;;24.70;99.90;26.10;102822.00;;;;4937996;29;20232;-68
2022/07/09 13:37:56;;;;;;;0.47;0.47;;;24.90;99.90;25.20;102818.00;;;;4939632;29;20178;-68